Time,TemperatureF,DewpointF,PressureIn,WindDirection,WindDirectionDegrees,WindSpeedMPH,WindSpeedGustMPH,Humidity,HourlyPrecipIn,Conditions,Clouds,dailyrainin,SoftwareType,DateUTC
2013-07-16 00:00:00,72.1,70.9,30.05,East,86,1.0,1.0,96,0.00,,,0.85,Wunderground v.1.15,2013-07-16 05:00:00,
2013-07-16 00:05:00,72.0,70.8,30.05,East,86,0.0,1.0,96,0.00,,,0.00,Wunderground v.1.15,2013-07-16 05:05:00,
2013-07-16 00:10:00,72.0,70.8,30.06,East,86,0.0,0.0,96,0.00,,,0.00,Wunderground v.1.15,2013-07-16 05:10:00,
2013-07-16 00:15:00,71.9,70.7,30.06,East,86,0.0,0.0,96,0.00,,,0.00,Wunderground v.1.15,2013-07-16 05:15:00,
2013-07-16 00:25:00,71.8,70.6,30.06,East,86,0.0,0.0,96,0.00,,,0.00,Wunderground v.1.15,2013-07-16 05:25:00,
2013-07-16 00:30:00,71.7,70.5,30.06,East,86,0.0,0.0,96,0.00,,,0.00,Wunderground v.1.15,2013-07-16 05:30:00,
2013-07-16 00:35:00,71.7,70.5,30.06,East,86,0.0,0.0,96,0.00,,,0.00,Wunderground v.1.15,2013-07-16 05:35:00,
2013-07-16 00:40:00,71.6,70.4,30.06,East,87,0.0,0.0,96,0.00,,,0.00,Wunderground v.1.15,2013-07-16 05:40:00,
2013-07-16 00:45:00,71.5,70.0,30.06,East,87,0.0,0.0,95,0.00,,,0.00,Wunderground v.1.15,2013-07-16 05:45:00,
2013-07-16 00:55:00,71.2,69.7,30.06,East,92,0.0,1.0,95,0.00,,,0.00,Wunderground v.1.15,2013-07-16 05:55:00,
2013-07-16 01:00:00,71.1,69.9,30.06,East,92,0.0,0.0,96,0.00,,,0.00,Wunderground v.1.15,2013-07-16 06:00:00,
2013-07-16 01:10:00,71.0,69.8,30.06,East,92,0.0,0.0,96,0.00,,,0.00,Wunderground v.1.15,2013-07-16 06:10:00,
2013-07-16 01:15:00,70.9,69.7,30.06,East,92,0.0,0.0,96,0.00,,,0.00,Wunderground v.1.15,2013-07-16 06:15:00,
2013-07-16 01:20:00,70.8,69.6,30.06,East,92,0.0,0.0,96,0.00,,,0.00,Wunderground v.1.15,2013-07-16 06:20:00,
2013-07-16 01:25:00,70.8,69.3,30.06,East,92,0.0,0.0,95,0.00,,,0.00,Wunderground v.1.15,2013-07-16 06:25:00,
2013-07-16 01:30:00,70.7,69.2,30.06,East,92,0.0,0.0,95,0.00,,,0.00,Wunderground v.1.15,2013-07-16 06:30:00,
2013-07-16 01:40:00,70.6,69.1,30.05,East,92,0.0,0.0,95,0.00,,,0.00,Wunderground v.1.15,2013-07-16 06:40:00,
2013-07-16 01:45:00,70.5,69.0,30.05,East,92,0.0,0.0,95,0.00,,,0.00,Wunderground v.1.15,2013-07-16 06:45:00,
2013-07-16 01:50:00,70.5,69.0,30.05,East,92,0.0,0.0,95,0.00,,,0.00,Wunderground v.1.15,2013-07-16 06:50:00,
2013-07-16 01:55:00,70.4,68.9,30.05,East,92,0.0,0.0,95,0.00,,,0.00,Wunderground v.1.15,2013-07-16 06:55:00,
2013-07-16 02:00:00,70.4,69.2,30.06,East,92,0.0,0.0,96,0.00,,,0.00,Wunderground v.1.15,2013-07-16 07:00:00,
2013-07-16 02:10:00,70.3,69.1,30.05,East,92,0.0,0.0,96,0.00,,,0.00,Wunderground v.1.15,2013-07-16 07:10:00,
2013-07-16 02:15:00,70.3,69.1,30.05,East,92,0.0,0.0,96,0.00,,,0.00,Wunderground v.1.15,2013-07-16 07:15:00,
2013-07-16 02:25:00,70.2,69.0,30.05,East,92,0.0,0.0,96,0.00,,,0.00,Wunderground v.1.15,2013-07-16 07:25:00,
2013-07-16 02:30:00,70.2,69.0,30.05,East,92,0.0,0.0,96,0.00,,,0.00,Wunderground v.1.15,2013-07-16 07:30:00,
2013-07-16 02:35:00,70.2,69.0,30.05,East,92,0.0,0.0,96,0.00,,,0.00,Wunderground v.1.15,2013-07-16 07:35:00,
2013-07-16 02:40:00,70.2,69.0,30.05,East,92,0.0,0.0,96,0.00,,,0.00,Wunderground v.1.15,2013-07-16 07:40:00,
2013-07-16 02:50:00,70.2,68.7,30.05,East,92,0.0,0.0,95,0.00,,,0.00,Wunderground v.1.15,2013-07-16 07:50:00,
2013-07-16 02:55:00,70.2,68.7,30.05,East,92,0.0,0.0,95,0.00,,,0.00,Wunderground v.1.15,2013-07-16 07:55:00,
2013-07-16 03:00:00,70.1,68.6,30.05,East,92,0.0,0.0,95,0.00,,,0.00,Wunderground v.1.15,2013-07-16 08:00:00,
2013-07-16 03:10:00,70.2,68.7,30.05,East,92,0.0,0.0,95,0.00,,,0.00,Wunderground v.1.15,2013-07-16 08:10:00,
2013-07-16 03:15:00,70.2,69.0,30.05,East,92,0.0,0.0,96,0.00,,,0.00,Wunderground v.1.15,2013-07-16 08:15:00,
2013-07-16 03:20:00,70.3,69.1,30.05,East,92,0.0,0.0,96,0.00,,,0.00,Wunderground v.1.15,2013-07-16 08:20:00,
2013-07-16 03:25:00,70.4,69.2,30.05,East,92,0.0,0.0,96,0.00,,,0.00,Wunderground v.1.15,2013-07-16 08:25:00,
2013-07-16 03:35:00,70.3,69.1,30.05,East,92,0.0,1.0,96,0.00,,,0.00,Wunderground v.1.15,2013-07-16 08:35:00,
2013-07-16 03:40:00,70.3,69.1,30.05,East,92,0.0,0.0,96,0.00,,,0.00,Wunderground v.1.15,2013-07-16 08:40:00,
2013-07-16 03:45:00,70.2,69.0,30.05,East,92,0.0,0.0,96,0.00,,,0.00,Wunderground v.1.15,2013-07-16 08:45:00,
2013-07-16 03:50:00,70.1,68.6,30.05,East,92,0.0,0.0,95,0.00,,,0.00,Wunderground v.1.15,2013-07-16 08:50:00,
2013-07-16 03:55:00,70.1,68.6,30.05,East,92,0.0,0.0,95,0.00,,,0.00,Wunderground v.1.15,2013-07-16 08:55:00,
2013-07-16 04:00:00,70.0,68.5,30.05,East,92,0.0,0.0,95,0.00,,,0.00,Wunderground v.1.15,2013-07-16 09:00:00,
2013-07-16 04:10:00,70.0,68.5,30.05,East,92,0.0,0.0,95,0.00,,,0.00,Wunderground v.1.15,2013-07-16 09:10:00,
2013-07-16 04:20:00,70.0,68.5,30.05,East,92,0.0,0.0,95,0.00,,,0.00,Wunderground v.1.15,2013-07-16 09:20:00,
2013-07-16 04:25:00,69.9,68.4,30.04,East,92,0.0,0.0,95,0.00,,,0.00,Wunderground v.1.15,2013-07-16 09:25:00,
2013-07-16 04:30:00,69.9,68.4,30.05,East,92,0.0,0.0,95,0.00,,,0.00,Wunderground v.1.15,2013-07-16 09:30:00,
2013-07-16 04:35:00,69.9,68.4,30.05,East,92,0.0,0.0,95,0.00,,,0.00,Wunderground v.1.15,2013-07-16 09:35:00,
2013-07-16 04:40:00,69.9,68.4,30.05,East,92,0.0,0.0,95,0.00,,,0.00,Wunderground v.1.15,2013-07-16 09:40:00,
2013-07-16 04:50:00,70.0,68.5,30.04,East,92,0.0,0.0,95,0.00,,,0.00,Wunderground v.1.15,2013-07-16 09:50:00,
2013-07-16 04:55:00,70.0,68.5,30.05,East,92,0.0,0.0,95,0.00,,,0.00,Wunderground v.1.15,2013-07-16 09:55:00,
2013-07-16 05:00:00,70.1,68.6,30.05,East,92,0.0,0.0,95,0.00,,,0.01,Wunderground v.1.15,2013-07-16 10:00:00,
2013-07-16 05:10:00,70.1,68.6,30.05,East,92,3.0,3.0,95,0.00,,,0.01,Wunderground v.1.15,2013-07-16 10:10:00,
2013-07-16 05:15:00,70.2,68.7,30.05,East,91,2.0,3.0,95,0.00,,,0.01,Wunderground v.1.15,2013-07-16 10:15:00,
2013-07-16 05:20:00,70.2,69.0,30.05,East,88,2.0,2.0,96,0.00,,,0.01,Wunderground v.1.15,2013-07-16 10:20:00,
2013-07-16 05:30:00,70.3,69.1,30.06,East,89,0.0,0.0,96,0.00,,,0.01,Wunderground v.1.15,2013-07-16 10:30:00,
2013-07-16 05:35:00,70.4,69.2,30.06,East,89,0.0,0.0,96,0.00,,,0.01,Wunderground v.1.15,2013-07-16 10:35:00,
2013-07-16 05:40:00,70.5,69.3,30.06,East,89,0.0,0.0,96,0.00,,,0.01,Wunderground v.1.15,2013-07-16 10:40:00,
2013-07-16 05:45:00,70.6,69.4,30.06,East,90,1.0,1.0,96,0.00,,,0.01,Wunderground v.1.15,2013-07-16 10:45:00,
2013-07-16 05:50:00,70.7,69.5,30.06,East,90,0.0,0.0,96,0.00,,,0.01,Wunderground v.1.15,2013-07-16 10:50:00,
2013-07-16 06:00:00,70.8,69.6,30.06,East,90,0.0,0.0,96,0.00,,,0.01,Wunderground v.1.15,2013-07-16 11:00:00,
2013-07-16 06:10:00,71.0,69.8,30.06,East,90,1.0,1.0,96,0.00,,,0.01,Wunderground v.1.15,2013-07-16 11:10:00,
2013-07-16 06:15:00,71.0,69.8,30.07,East,90,1.0,1.0,96,0.00,,,0.01,Wunderground v.1.15,2013-07-16 11:15:00,
2013-07-16 06:20:00,71.0,69.8,30.07,East,90,0.0,7.0,96,0.00,,,0.01,Wunderground v.1.15,2013-07-16 11:20:00,
2013-07-16 06:25:00,71.0,69.8,30.07,East,94,1.0,7.0,96,0.00,,,0.02,Wunderground v.1.15,2013-07-16 11:25:00,
2013-07-16 06:30:00,71.1,69.9,30.07,East,94,1.0,1.0,96,0.00,,,0.02,Wunderground v.1.15,2013-07-16 11:30:00,
2013-07-16 06:35:00,71.1,69.9,30.07,East,94,1.0,1.0,96,0.00,,,0.02,Wunderground v.1.15,2013-07-16 11:35:00,
2013-07-16 06:45:00,71.2,70.0,30.08,ESE,102,2.0,2.0,96,0.00,,,0.02,Wunderground v.1.15,2013-07-16 11:45:00,
2013-07-16 06:50:00,71.2,70.0,30.09,ESE,102,1.0,1.0,96,0.00,,,0.02,Wunderground v.1.15,2013-07-16 11:50:00,
2013-07-16 06:55:00,71.2,70.0,30.08,ESE,102,0.0,1.0,96,0.00,,,0.02,Wunderground v.1.15,2013-07-16 11:55:00,
2013-07-16 07:00:00,71.3,70.1,30.08,ESE,107,0.0,0.0,96,0.00,,,0.02,Wunderground v.1.15,2013-07-16 12:00:00,
2013-07-16 07:10:00,71.4,70.2,30.09,ESE,107,1.0,1.0,96,0.00,,,0.02,Wunderground v.1.15,2013-07-16 12:10:00,
2013-07-16 07:15:00,71.4,70.2,30.09,ESE,108,2.0,2.0,96,0.00,,,0.02,Wunderground v.1.15,2013-07-16 12:15:00,
2013-07-16 07:20:00,71.4,70.2,30.09,ESE,108,1.0,1.0,96,0.00,,,0.02,Wunderground v.1.15,2013-07-16 12:20:00,
2013-07-16 07:25:00,71.5,70.3,30.09,ESE,109,0.0,1.0,96,0.00,,,0.02,Wunderground v.1.15,2013-07-16 12:25:00,
2013-07-16 07:35:00,71.7,70.5,30.09,ESE,109,1.0,1.0,96,0.00,,,0.02,Wunderground v.1.15,2013-07-16 12:35:00,
2013-07-16 07:40:00,71.7,70.5,30.09,East,95,2.0,6.0,96,0.00,,,0.02,Wunderground v.1.15,2013-07-16 12:40:00,
2013-07-16 07:45:00,71.8,70.6,30.09,East,96,2.0,6.0,96,0.00,,,0.02,Wunderground v.1.15,2013-07-16 12:45:00,
2013-07-16 07:55:00,71.9,70.7,30.09,East,97,3.0,7.0,96,0.00,,,0.02,Wunderground v.1.15,2013-07-16 12:55:00,
2013-07-16 08:00:00,72.0,70.8,30.09,East,88,3.0,6.0,96,0.00,,,0.02,Wunderground v.1.15,2013-07-16 13:00:00,
2013-07-16 08:10:00,72.3,71.1,30.09,ESE,103,5.0,6.0,96,0.00,,,0.02,Wunderground v.1.15,2013-07-16 13:10:00,
2013-07-16 08:15:00,72.4,71.2,30.09,ESE,103,4.0,6.0,96,0.00,,,0.02,Wunderground v.1.15,2013-07-16 13:15:00,
2013-07-16 08:20:00,72.7,71.5,30.10,East,94,3.0,9.0,96,0.00,,,0.02,Wunderground v.1.15,2013-07-16 13:20:00,
2013-07-16 08:25:00,72.8,71.6,30.10,East,90,3.0,12.0,96,0.00,,,0.02,Wunderground v.1.15,2013-07-16 13:25:00,
2013-07-16 08:30:00,72.9,71.7,30.10,East,100,4.0,6.0,96,0.00,,,0.02,Wunderground v.1.15,2013-07-16 13:30:00,
2013-07-16 08:40:00,73.1,71.9,30.11,ESE,108,1.0,1.0,96,0.00,,,0.02,Wunderground v.1.15,2013-07-16 13:40:00,
2013-07-16 08:45:00,73.1,71.9,30.11,East,101,0.0,1.0,96,0.00,,,0.02,Wunderground v.1.15,2013-07-16 13:45:00,
2013-07-16 08:50:00,73.2,72.0,30.11,East,94,1.0,1.0,96,0.00,,,0.02,Wunderground v.1.15,2013-07-16 13:50:00,
2013-07-16 08:55:00,73.3,72.1,30.11,East,90,1.0,1.0,96,0.00,,,0.02,Wunderground v.1.15,2013-07-16 13:55:00,
2013-07-16 09:00:00,73.5,72.3,30.11,East,90,1.0,1.0,96,0.00,,,0.02,Wunderground v.1.15,2013-07-16 14:00:00,
2013-07-16 09:10:00,73.8,72.6,30.11,East,83,1.0,1.0,96,0.00,,,0.02,Wunderground v.1.15,2013-07-16 14:10:00,
2013-07-16 09:15:00,73.9,72.4,30.11,East,87,1.0,1.0,95,0.00,,,0.02,Wunderground v.1.15,2013-07-16 14:15:00,
2013-07-16 09:20:00,74.1,72.6,30.11,East,92,1.0,4.0,95,0.00,,,0.02,Wunderground v.1.15,2013-07-16 14:20:00,
2013-07-16 09:30:00,74.5,73.0,30.11,East,93,1.0,2.0,95,0.00,,,0.02,Wunderground v.1.15,2013-07-16 14:30:00,
2013-07-16 09:35:00,74.6,73.1,30.11,ESE,102,2.0,4.0,95,0.00,,,0.02,Wunderground v.1.15,2013-07-16 14:35:00,
2013-07-16 09:40:00,74.7,72.9,30.11,ESE,102,3.0,7.0,94,0.00,,,0.02,Wunderground v.1.15,2013-07-16 14:40:00,
2013-07-16 09:50:00,75.3,73.5,30.11,ESE,107,3.0,3.0,94,0.00,,,0.02,Wunderground v.1.15,2013-07-16 14:50:00,
2013-07-16 09:55:00,75.6,73.8,30.11,ESE,107,1.0,3.0,94,0.00,,,0.02,Wunderground v.1.15,2013-07-16 14:55:00,
2013-07-16 10:00:00,75.9,73.7,30.11,ESE,107,1.0,1.0,93,0.00,,,0.02,Wunderground v.1.15,2013-07-16 15:00:00,
2013-07-16 10:10:00,76.5,74.0,30.11,ESE,108,2.0,2.0,92,0.00,,,0.02,Wunderground v.1.15,2013-07-16 15:10:00,
2013-07-16 10:15:00,76.7,73.9,30.12,ESE,112,3.0,5.0,91,0.00,,,0.02,Wunderground v.1.15,2013-07-16 15:15:00,
2013-07-16 10:20:00,76.9,74.1,30.12,ESE,113,4.0,4.0,91,0.00,,,0.02,Wunderground v.1.15,2013-07-16 15:20:00,
2013-07-16 10:25:00,77.0,73.8,30.12,ESE,109,4.0,6.0,90,0.00,,,0.02,Wunderground v.1.15,2013-07-16 15:25:00,
2013-07-16 10:30:00,77.2,74.0,30.12,ESE,103,4.0,4.0,90,0.00,,,0.02,Wunderground v.1.15,2013-07-16 15:30:00,
2013-07-16 10:40:00,77.7,74.2,30.12,East,98,5.0,5.0,89,0.00,,,0.02,Wunderground v.1.15,2013-07-16 15:40:00,
2013-07-16 10:45:00,77.9,74.4,30.12,ESE,111,5.0,7.0,89,0.00,,,0.02,Wunderground v.1.15,2013-07-16 15:45:00,
2013-07-16 10:50:00,78.1,74.6,30.12,East,92,5.0,9.0,89,0.00,,,0.02,Wunderground v.1.15,2013-07-16 15:50:00,
2013-07-16 11:00:00,78.3,74.5,30.12,East,80,5.0,7.0,88,0.00,,,0.02,Wunderground v.1.15,2013-07-16 16:00:00,
2013-07-16 11:10:00,78.3,74.1,30.12,East,90,6.0,8.0,87,0.00,,,0.02,Wunderground v.1.15,2013-07-16 16:10:00,
2013-07-16 11:20:00,78.4,73.9,30.12,ESE,110,5.0,5.0,86,0.00,,,0.02,Wunderground v.1.15,2013-07-16 16:20:00,
2013-07-16 11:25:00,78.5,74.3,30.12,East,90,4.0,5.0,87,0.00,,,0.02,Wunderground v.1.15,2013-07-16 16:25:00,
2013-07-16 11:30:00,78.6,74.1,30.12,East,86,5.0,8.0,86,0.00,,,0.02,Wunderground v.1.15,2013-07-16 16:30:00,
2013-07-16 11:35:00,78.7,74.2,30.13,East,92,5.0,8.0,86,0.00,,,0.02,Wunderground v.1.15,2013-07-16 16:35:00,
2013-07-16 11:40:00,78.8,74.3,30.12,East,91,4.0,8.0,86,0.00,,,0.02,Wunderground v.1.15,2013-07-16 16:40:00,
2013-07-16 11:50:00,79.0,74.5,30.12,ESE,109,4.0,6.0,86,0.00,,,0.02,Wunderground v.1.15,2013-07-16 16:50:00,
2013-07-16 11:55:00,79.2,74.6,30.12,East,90,4.0,6.0,86,0.00,,,0.02,Wunderground v.1.15,2013-07-16 16:55:00,
2013-07-16 12:00:00,79.5,74.6,30.13,ENE,77,3.0,8.0,85,0.00,,,0.02,Wunderground v.1.15,2013-07-16 17:00:00,
2013-07-16 12:10:00,80.2,74.9,30.13,East,99,3.0,4.0,84,0.00,,,0.02,Wunderground v.1.15,2013-07-16 17:10:00,
2013-07-16 12:15:00,80.5,74.9,30.12,ESE,109,4.0,12.0,83,0.00,,,0.02,Wunderground v.1.15,2013-07-16 17:15:00,
2013-07-16 12:20:00,80.3,74.7,30.12,ESE,114,6.0,6.0,83,0.00,,,0.02,Wunderground v.1.15,2013-07-16 17:20:00,
2013-07-16 12:30:00,80.0,74.4,30.12,East,82,5.0,6.0,83,0.00,,,0.02,Wunderground v.1.15,2013-07-16 17:30:00,
2013-07-16 12:35:00,80.1,74.5,30.12,East,98,5.0,9.0,83,0.00,,,0.02,Wunderground v.1.15,2013-07-16 17:35:00,
2013-07-16 12:40:00,80.6,75.0,30.12,ESE,123,6.0,6.0,83,0.00,,,0.02,Wunderground v.1.15,2013-07-16 17:40:00,
2013-07-16 12:45:00,80.9,74.1,30.11,ESE,115,8.0,12.0,80,0.00,,,0.02,Wunderground v.1.15,2013-07-16 17:45:00,
2013-07-16 12:55:00,82.5,75.3,30.11,East,96,6.0,8.0,79,0.00,,,0.02,Wunderground v.1.15,2013-07-16 17:55:00,
2013-07-16 13:00:00,82.9,74.9,30.11,ESE,103,8.0,8.0,77,0.00,,,0.02,Wunderground v.1.15,2013-07-16 18:00:00,
2013-07-16 13:10:00,83.7,75.7,30.11,East,94,8.0,8.0,77,0.00,,,0.02,Wunderground v.1.15,2013-07-16 18:10:00,
2013-07-16 13:15:00,84.6,75.4,30.11,East,101,8.0,11.0,74,0.00,,,0.02,Wunderground v.1.15,2013-07-16 18:15:00,
2013-07-16 13:20:00,84.5,74.9,30.11,ESE,113,9.0,9.0,73,0.00,,,0.02,Wunderground v.1.15,2013-07-16 18:20:00,
2013-07-16 13:25:00,84.5,75.7,30.10,SE,124,9.0,9.0,75,0.00,,,0.02,Wunderground v.1.15,2013-07-16 18:25:00,
2013-07-16 13:30:00,85.0,75.8,30.10,ENE,74,7.0,7.0,74,0.00,,,0.02,Wunderground v.1.15,2013-07-16 18:30:00,
2013-07-16 13:35:00,85.6,75.1,30.10,SE,135,7.0,11.0,71,0.00,,,0.02,Wunderground v.1.15,2013-07-16 18:35:00,
2013-07-16 13:45:00,85.9,76.6,30.10,SE,141,9.0,14.0,74,0.00,,,0.02,Wunderground v.1.15,2013-07-16 18:45:00,
2013-07-16 13:50:00,86.2,75.7,30.10,ENE,74,9.0,13.0,71,0.00,,,0.02,Wunderground v.1.15,2013-07-16 18:50:00,
2013-07-16 13:55:00,86.7,77.0,30.10,ESE,118,8.0,13.0,73,0.00,,,0.02,Wunderground v.1.15,2013-07-16 18:55:00,
2013-07-16 14:01:00,86.5,75.1,30.09,East,101,9.0,9.0,69,0.00,,,0.02,Wunderground v.1.15,2013-07-16 19:01:00,
2013-07-16 14:10:00,87.5,76.1,30.09,ESE,122,6.0,6.0,69,0.00,,,0.02,Wunderground v.1.15,2013-07-16 19:10:00,
2013-07-16 14:15:00,87.3,75.0,30.09,SE,124,7.0,13.0,67,0.00,,,0.02,Wunderground v.1.15,2013-07-16 19:15:00,
2013-07-16 14:25:00,87.1,74.8,30.09,ESE,120,8.0,15.0,67,0.00,,,0.02,Wunderground v.1.15,2013-07-16 19:25:00,
2013-07-16 14:30:00,87.2,74.5,30.09,East,83,7.0,7.0,66,0.00,,,0.02,Wunderground v.1.15,2013-07-16 19:30:00,
2013-07-16 14:35:00,87.6,75.3,30.09,ESE,113,7.0,7.0,67,0.00,,,0.02,Wunderground v.1.15,2013-07-16 19:35:00,
2013-07-16 14:40:00,87.5,73.8,30.08,ESE,106,7.0,7.0,64,0.00,,,0.02,Wunderground v.1.15,2013-07-16 19:40:00,
2013-07-16 14:45:00,87.9,75.6,30.08,ESE,109,7.0,9.0,67,0.00,,,0.02,Wunderground v.1.15,2013-07-16 19:45:00,
2013-07-16 14:55:00,88.7,74.5,30.08,SE,125,7.0,13.0,63,0.00,,,0.02,Wunderground v.1.15,2013-07-16 19:55:00,
2013-07-16 15:00:00,88.9,73.7,30.08,East,84,6.0,7.0,61,0.00,,,0.02,Wunderground v.1.15,2013-07-16 20:00:00,
2013-07-16 15:10:00,88.0,73.8,30.08,ESE,111,8.0,12.0,63,0.00,,,0.02,Wunderground v.1.15,2013-07-16 20:10:00,
2013-07-16 15:15:00,87.8,72.7,30.07,ENE,78,6.0,12.0,61,0.00,,,0.02,Wunderground v.1.15,2013-07-16 20:15:00,
2013-07-16 15:20:00,88.4,72.7,30.07,ESE,112,6.0,9.0,60,0.00,,,0.02,Wunderground v.1.15,2013-07-16 20:20:00,
2013-07-16 15:25:00,88.5,72.8,30.06,ESE,118,7.0,11.0,60,0.00,,,0.02,Wunderground v.1.15,2013-07-16 20:25:00,
2013-07-16 15:30:00,88.5,72.8,30.07,SE,138,7.0,7.0,60,0.00,,,0.02,Wunderground v.1.15,2013-07-16 20:30:00,
2013-07-16 15:40:00,88.8,73.6,30.06,SE,132,7.0,13.0,61,0.00,,,0.02,Wunderground v.1.15,2013-07-16 20:40:00,
2013-07-16 15:45:00,88.1,72.5,30.06,East,88,8.0,13.0,60,0.00,,,0.02,Wunderground v.1.15,2013-07-16 20:45:00,
2013-07-16 15:50:00,87.5,71.9,30.06,ESE,104,6.0,6.0,60,0.00,,,0.02,Wunderground v.1.15,2013-07-16 20:50:00,
2013-07-16 15:55:00,87.1,72.0,30.06,East,94,6.0,6.0,61,0.00,,,0.02,Wunderground v.1.15,2013-07-16 20:55:00,
2013-07-16 16:01:00,86.9,71.3,30.06,East,95,6.0,7.0,60,0.00,,,0.02,Wunderground v.1.15,2013-07-16 21:01:00,
2013-07-16 16:10:00,86.4,71.4,30.06,East,91,6.0,6.0,61,0.00,,,0.02,Wunderground v.1.15,2013-07-16 21:10:00,
2013-07-16 16:20:00,86.4,72.3,30.06,ESE,117,3.0,3.0,63,0.00,,,0.02,Wunderground v.1.15,2013-07-16 21:20:00,
2013-07-16 16:25:00,86.4,72.3,30.05,SE,130,4.0,6.0,63,0.00,,,0.02,Wunderground v.1.15,2013-07-16 21:25:00,
2013-07-16 16:30:00,86.3,71.7,30.05,East,100,5.0,5.0,62,0.00,,,0.02,Wunderground v.1.15,2013-07-16 21:30:00,
2013-07-16 16:35:00,86.3,71.7,30.05,ESE,103,5.0,9.0,62,0.00,,,0.02,Wunderground v.1.15,2013-07-16 21:35:00,
2013-07-16 16:40:00,86.3,72.2,30.05,ESE,121,6.0,6.0,63,0.00,,,0.02,Wunderground v.1.15,2013-07-16 21:40:00,
2013-07-16 16:50:00,86.7,72.1,30.05,East,97,4.0,4.0,62,0.00,,,0.02,Wunderground v.1.15,2013-07-16 21:50:00,
2013-07-16 16:55:00,87.0,72.4,30.05,East,94,2.0,7.0,62,0.00,,,0.02,Wunderground v.1.15,2013-07-16 21:55:00,
2013-07-16 17:00:00,87.2,72.6,30.05,East,92,1.0,1.0,62,0.00,,,0.02,Wunderground v.1.15,2013-07-16 22:00:00,
2013-07-16 17:10:00,87.4,73.3,30.05,ESE,110,1.0,1.0,63,0.00,,,0.02,Wunderground v.1.15,2013-07-16 22:10:00,
2013-07-16 17:15:00,87.5,72.4,30.05,East,90,3.0,9.0,61,0.00,,,0.02,Wunderground v.1.15,2013-07-16 22:15:00,
2013-07-16 17:20:00,87.5,71.9,30.05,ESE,108,4.0,7.0,60,0.00,,,0.02,Wunderground v.1.15,2013-07-16 22:20:00,
2013-07-16 17:30:00,87.8,72.7,30.04,ESE,114,4.0,7.0,61,0.00,,,0.02,Wunderground v.1.15,2013-07-16 22:30:00,
2013-07-16 17:35:00,88.0,73.3,30.04,ESE,116,2.0,7.0,62,0.00,,,0.02,Wunderground v.1.15,2013-07-16 22:35:00,
2013-07-16 17:40:00,88.0,72.9,30.05,ESE,107,4.0,6.0,61,0.00,,,0.02,Wunderground v.1.15,2013-07-16 22:40:00,
2013-07-16 17:45:00,88.3,73.1,30.05,ESE,117,5.0,11.0,61,0.00,,,0.02,Wunderground v.1.15,2013-07-16 22:45:00,
2013-07-16 17:50:00,88.2,73.0,30.05,East,90,4.0,4.0,61,0.00,,,0.02,Wunderground v.1.15,2013-07-16 22:50:00,
2013-07-16 18:00:00,87.7,72.1,30.04,ESE,123,4.0,4.0,60,0.00,,,0.02,Wunderground v.1.15,2013-07-16 23:00:00,
2013-07-16 18:10:00,87.9,72.8,30.05,SE,125,4.0,6.0,61,0.00,,,0.02,Wunderground v.1.15,2013-07-16 23:10:00,
2013-07-16 18:15:00,87.7,72.6,30.07,ESE,119,7.0,15.0,61,0.00,,,0.02,Wunderground v.1.15,2013-07-16 23:15:00,
2013-07-16 18:20:00,85.6,72.0,30.07,ESE,107,12.0,14.0,64,0.00,,,0.02,Wunderground v.1.15,2013-07-16 23:20:00,
2013-07-16 18:25:00,83.3,71.6,30.08,East,80,12.0,14.0,68,0.00,,,0.02,Wunderground v.1.15,2013-07-16 23:25:00,
2013-07-16 18:30:00,81.3,71.8,30.08,East,86,11.0,13.0,73,0.00,,,0.02,Wunderground v.1.15,2013-07-16 23:30:00,
2013-07-16 18:40:00,78.3,71.2,30.08,ENE,76,8.0,8.0,79,0.00,,,0.02,Wunderground v.1.15,2013-07-16 23:40:00,
2013-07-16 18:45:00,78.3,72.3,30.08,ENE,78,6.0,8.0,82,0.00,,,0.03,Wunderground v.1.15,2013-07-16 23:45:00,
2013-07-16 18:50:00,77.9,72.3,30.08,East,80,7.0,8.0,83,0.00,,,0.03,Wunderground v.1.15,2013-07-16 23:50:00,
2013-07-16 19:00:00,77.4,72.5,30.07,ENE,74,6.0,7.0,85,0.06,,,0.04,Wunderground v.1.15,2013-07-17 00:00:00,
2013-07-16 19:10:00,77.2,72.3,30.07,ENE,78,6.0,6.0,85,0.04,,,0.04,Wunderground v.1.15,2013-07-17 00:10:00,
2013-07-16 19:15:00,76.9,71.7,30.07,ENE,76,6.0,6.0,84,0.00,,,0.04,Wunderground v.1.15,2013-07-17 00:15:00,
2013-07-16 19:20:00,76.8,71.9,30.07,ENE,78,3.0,3.0,85,0.00,,,0.04,Wunderground v.1.15,2013-07-17 00:20:00,
2013-07-16 19:25:00,76.7,71.8,30.07,ENE,72,2.0,5.0,85,0.00,,,0.04,Wunderground v.1.15,2013-07-17 00:25:00,
2013-07-16 19:30:00,76.6,71.7,30.07,ENE,68,2.0,2.0,85,0.00,,,0.04,Wunderground v.1.15,2013-07-17 00:30:00,
2013-07-16 19:35:00,76.5,71.7,30.08,ENE,71,3.0,5.0,85,0.00,,,0.04,Wunderground v.1.15,2013-07-17 00:35:00,
2013-07-16 19:45:00,76.3,71.5,30.07,ENE,72,3.0,5.0,85,0.00,,,0.04,Wunderground v.1.15,2013-07-17 00:45:00,
2013-07-16 19:50:00,76.2,71.7,30.08,ENE,75,3.0,3.0,86,0.00,,,0.04,Wunderground v.1.15,2013-07-17 00:50:00,
2013-07-16 19:55:00,76.2,71.4,30.08,ENE,73,1.0,3.0,85,0.00,,,0.04,Wunderground v.1.15,2013-07-17 00:55:00,
2013-07-16 20:00:00,76.2,71.4,30.08,ENE,73,1.0,1.0,85,0.00,,,0.04,Wunderground v.1.15,2013-07-17 01:00:00,
2013-07-16 20:10:00,76.1,71.3,30.08,ENE,73,0.0,0.0,85,0.00,,,0.04,Wunderground v.1.15,2013-07-17 01:10:00,
2013-07-16 20:15:00,76.0,71.2,30.09,ENE,73,0.0,0.0,85,0.00,,,0.04,Wunderground v.1.15,2013-07-17 01:15:00,
2013-07-16 20:20:00,75.9,71.1,30.09,ENE,73,0.0,0.0,85,0.00,,,0.04,Wunderground v.1.15,2013-07-17 01:20:00,
2013-07-16 20:30:00,75.8,71.0,30.09,ENE,73,0.0,0.0,85,0.00,,,0.04,Wunderground v.1.15,2013-07-17 01:30:00,
2013-07-16 20:35:00,75.8,71.0,30.09,ENE,73,0.0,0.0,85,0.00,,,0.04,Wunderground v.1.15,2013-07-17 01:35:00,
2013-07-16 20:40:00,75.8,71.0,30.09,ENE,73,0.0,0.0,85,0.00,,,0.04,Wunderground v.1.15,2013-07-17 01:40:00,
2013-07-16 20:45:00,75.7,70.9,30.09,ENE,73,0.0,0.0,85,0.00,,,0.04,Wunderground v.1.15,2013-07-17 01:45:00,
2013-07-16 20:50:00,75.6,71.1,30.09,ENE,73,0.0,0.0,86,0.00,,,0.04,Wunderground v.1.15,2013-07-17 01:50:00,
2013-07-16 21:00:00,75.4,70.9,30.09,ENE,73,0.0,0.0,86,0.00,,,0.04,Wunderground v.1.15,2013-07-17 02:00:00,
2013-07-16 21:10:00,75.1,70.3,30.09,ENE,73,0.0,0.0,85,0.00,,,0.04,Wunderground v.1.15,2013-07-17 02:10:00,
2013-07-16 21:15:00,75.1,70.6,30.09,ENE,73,0.0,0.0,86,0.00,,,0.04,Wunderground v.1.15,2013-07-17 02:15:00,
2013-07-16 21:20:00,75.0,70.5,30.10,ENE,73,0.0,0.0,86,0.00,,,0.04,Wunderground v.1.15,2013-07-17 02:20:00,
2013-07-16 21:25:00,74.9,70.4,30.10,ENE,73,0.0,0.0,86,0.00,,,0.04,Wunderground v.1.15,2013-07-17 02:25:00,
2013-07-16 21:30:00,74.9,70.4,30.10,ENE,73,0.0,0.0,86,0.00,,,0.04,Wunderground v.1.15,2013-07-17 02:30:00,
2013-07-16 21:40:00,74.8,70.7,30.10,ENE,73,0.0,0.0,87,0.00,,,0.04,Wunderground v.1.15,2013-07-17 02:40:00,
2013-07-16 21:45:00,74.7,70.6,30.10,ENE,73,0.0,0.0,87,0.00,,,0.04,Wunderground v.1.15,2013-07-17 02:45:00,
2013-07-16 21:50:00,74.7,70.9,30.11,ENE,73,0.0,0.0,88,0.00,,,0.04,Wunderground v.1.15,2013-07-17 02:50:00,
2013-07-16 22:00:00,74.7,70.9,30.12,ENE,73,0.0,0.0,88,0.00,,,0.04,Wunderground v.1.15,2013-07-17 03:00:00,
2013-07-16 22:10:00,74.7,70.9,30.12,ENE,73,0.0,0.0,88,0.00,,,0.04,Wunderground v.1.15,2013-07-17 03:10:00,
2013-07-16 22:15:00,74.7,70.9,30.13,ENE,73,0.0,0.0,88,0.00,,,0.04,Wunderground v.1.15,2013-07-17 03:15:00,
2013-07-16 22:20:00,74.7,70.9,30.13,ENE,73,0.0,0.0,88,0.00,,,0.04,Wunderground v.1.15,2013-07-17 03:20:00,
2013-07-16 22:30:00,74.6,71.1,30.13,ENE,73,0.0,0.0,89,0.00,,,0.04,Wunderground v.1.15,2013-07-17 03:30:00,
2013-07-16 22:35:00,74.6,71.1,30.13,ENE,73,0.0,0.0,89,0.00,,,0.04,Wunderground v.1.15,2013-07-17 03:35:00,
2013-07-16 22:40:00,74.6,71.1,30.13,ENE,73,0.0,0.0,89,0.00,,,0.04,Wunderground v.1.15,2013-07-17 03:40:00,
2013-07-16 22:45:00,74.6,71.1,30.13,ENE,73,0.0,0.0,89,0.00,,,0.04,Wunderground v.1.15,2013-07-17 03:45:00,
2013-07-16 22:50:00,74.6,71.1,30.13,ENE,73,0.0,0.0,89,0.00,,,0.04,Wunderground v.1.15,2013-07-17 03:50:00,
2013-07-16 23:00:00,74.7,71.2,30.13,ENE,73,0.0,0.0,89,0.00,,,0.04,Wunderground v.1.15,2013-07-17 04:00:00,
2013-07-16 23:05:00,74.7,71.6,30.14,ENE,73,0.0,0.0,90,0.00,,,0.04,Wunderground v.1.15,2013-07-17 04:05:00,
2013-07-16 23:10:00,74.8,71.7,30.14,ENE,73,0.0,0.0,90,0.00,,,0.04,Wunderground v.1.15,2013-07-17 04:10:00,
2013-07-16 23:15:00,74.8,71.7,30.15,ENE,73,0.0,0.0,90,0.00,,,0.04,Wunderground v.1.15,2013-07-17 04:15:00,
2013-07-16 23:20:00,74.9,71.8,30.14,ENE,73,0.0,0.0,90,0.00,,,0.04,Wunderground v.1.15,2013-07-17 04:20:00,
2013-07-16 23:25:00,74.9,71.8,30.15,ENE,73,0.0,0.0,90,0.00,,,0.04,Wunderground v.1.15,2013-07-17 04:25:00,
2013-07-16 23:30:00,74.9,71.8,30.15,East,83,0.0,0.0,90,0.00,,,0.04,Wunderground v.1.15,2013-07-17 04:30:00,
2013-07-16 23:40:00,75.0,71.5,30.15,SE,127,1.0,1.0,89,0.00,,,0.04,Wunderground v.1.15,2013-07-17 04:40:00,
2013-07-16 23:45:00,75.1,71.6,30.15,SE,127,1.0,1.0,89,0.00,,,0.04,Wunderground v.1.15,2013-07-17 04:45:00,
2013-07-16 23:50:00,75.1,71.3,30.15,SE,127,0.0,0.0,88,0.00,,,0.04,Wunderground v.1.15,2013-07-17 04:50:00,
2013-07-16 23:55:00,75.2,71.4,30.15,SE,127,0.0,0.0,88,0.00,,,0.04,Wunderground v.1.15,2013-07-17 04:55:00,